Terminal Aerodrome Forecast
Issued by NWS

Home | Current Version | Previous Version | Text Only | Print | Product List | Glossary On
Versions: 1 2 3 4 5 6 7 8 9 10 11 12 13 14 15 16 17 18 19 20
000
FTUS46 KEKA 290539
TAFCEC
TAF
KCEC 290539Z 2906/3006 18005KT P6SM SCT050 BKN070 BKN110
     FM291500 16010KT P6SM -RA FEW035 BKN050 OVC070
     FM291900 16012KT 5SM -RA BR SCT015 OVC035
     FM292200 17012KT 3SM -RA BR FEW009 SCT015 OVC025
      TEMPO 2922/3002 2SM -RA BR SCT009 OVC012
     FM300200 17014KT 4SM -RA OVC012=

USA.gov is the U.S. government's official web portal to all federal, state and local government web resources and services.